Time;durP1;ratioP1;P1;durP2;ratioP2;P2;SDS_P1;SDS_P2;PMS_P1;PMS_P2;Temp;Humidity;BMP_temperature;BMP_pressure;BME280_temperature;BME280_humidity;BME280_pressure;Samples;Min_cycle;Max_cycle;Signal;HPM_P1;HPM_P2
2022/08/20 00:01:51;;;;;;;11.07;7.35;;;;;;;26.75;54.72;94349.22;6113710;23;20206;-78
2022/08/20 00:04:20;;;;;;;8.95;6.70;;;;;;;26.73;54.77;94346.06;6114954;23;20222;-77
2022/08/20 00:06:49;;;;;;;9.45;6.55;;;;;;;26.70;54.88;94346.72;6113639;23;20502;-79
2022/08/20 00:09:15;;;;;;;8.63;6.70;;;;;;;26.63;55.20;94333.94;6115514;23;20177;-77
2022/08/20 00:11:42;;;;;;;8.95;6.70;;;;;;;26.65;55.23;94345.03;6114847;23;20912;-78
2022/08/20 00:14:09;;;;;;;13.77;7.35;;;;;;;26.66;55.25;94346.63;6114671;23;20215;-77
2022/08/20 00:16:38;;;;;;;9.55;6.57;;;;;;;26.56;55.88;94349.66;6115284;23;20739;-77
2022/08/20 00:19:07;;;;;;;10.05;6.60;;;;;;;26.46;55.86;94356.16;6115909;23;20172;-77
2022/08/20 00:21:35;;;;;;;8.23;6.78;;;;;;;26.44;56.21;94347.72;6113541;23;20175;-77
2022/08/20 00:24:04;;;;;;;9.93;6.50;;;;;;;26.43;56.35;94348.03;6115568;23;20219;-76
2022/08/20 00:26:31;;;;;;;10.63;7.10;;;;;;;26.36;56.78;94343.22;6115134;23;20200;-77
2022/08/20 00:28:58;;;;;;;10.90;7.00;;;;;;;26.33;56.74;94345.75;6115236;23;20187;-77
2022/08/20 00:31:25;;;;;;;7.70;6.60;;;;;;;26.31;56.72;94340.75;6114215;23;20181;-76
2022/08/20 00:33:53;;;;;;;10.27;7.07;;;;;;;26.30;56.93;94341.06;6114241;23;20271;-78
2022/08/20 00:36:21;;;;;;;9.48;7.55;;;;;;;26.25;57.34;94347.38;6115145;23;20165;-77
2022/08/20 00:38:48;;;;;;;12.35;7.60;;;;;;;26.26;56.84;94342.84;6115991;23;20557;-77
2022/08/20 00:41:19;;;;;;;10.93;6.93;;;;;;;26.17;56.96;94350.09;6115952;23;20557;-78
2022/08/20 00:43:48;;;;;;;9.82;7.72;;;;;;;26.03;57.88;94355.63;6113655;23;20188;-77
2022/08/20 00:46:19;;;;;;;13.55;8.23;;;;;;;25.87;58.63;94344.72;6115142;23;20246;-77
2022/08/20 00:48:49;;;;;;;14.85;8.30;;;;;;;25.48;59.73;94338.97;6115644;23;20161;-77
2022/08/20 00:51:24;;;;;;;10.65;8.00;;;;;;;25.36;61.07;94339.59;6115151;23;20219;-78
2022/08/20 00:53:52;;;;;;;9.35;8.15;;;;;;;25.33;61.01;94333.03;6114572;23;20156;-77
2022/08/20 00:56:20;;;;;;;9.73;8.07;;;;;;;25.23;61.96;94335.22;6114820;23;20252;-78
2022/08/20 00:58:49;;;;;;;10.70;8.75;;;;;;;25.10;62.17;94317.59;6115457;23;20195;-77
2022/08/20 01:01:18;;;;;;;13.05;8.13;;;;;;;25.04;62.47;94326.81;6115574;23;20523;-77
2022/08/20 01:03:45;;;;;;;17.05;9.05;;;;;;;24.83;63.65;94319.50;6114120;23;20205;-77
2022/08/20 01:06:11;;;;;;;12.07;8.70;;;;;;;24.55;64.29;94312.16;6114608;23;20183;-78
2022/08/20 01:08:39;;;;;;;12.55;8.52;;;;;;;24.50;65.19;94310.41;6115908;23;20176;-78
2022/08/20 01:11:11;;;;;;;12.20;8.32;;;;;;;24.44;65.09;94314.34;6115337;23;20172;-77
2022/08/20 01:13:40;;;;;;;12.60;8.13;;;;;;;24.42;66.48;94311.19;6115217;23;20207;-78
2022/08/20 01:16:16;;;;;;;12.82;8.85;;;;;;;24.38;66.48;94302.31;6115067;23;20169;-78
2022/08/20 01:18:47;;;;;;;12.60;8.68;;;;;;;24.41;66.75;94309.66;6114608;23;20254;-78
2022/08/20 01:21:15;;;;;;;10.02;7.78;;;;;;;24.44;65.99;94306.38;6114637;23;20167;-77
2022/08/20 01:23:50;;;;;;;9.80;7.90;;;;;;;24.39;65.58;94309.16;6112708;23;20607;-77
2022/08/20 01:26:23;;;;;;;17.67;8.50;;;;;;;24.47;65.87;94308.41;6113613;23;20671;-78
2022/08/20 01:28:53;;;;;;;14.18;8.65;;;;;;;24.38;67.09;94298.88;6115339;23;20169;-78
2022/08/20 01:31:22;;;;;;;10.35;8.90;;;;;;;24.46;66.91;94298.88;6114230;23;20167;-79
2022/08/20 01:33:50;;;;;;;12.98;7.90;;;;;;;24.51;66.62;94297.91;6114131;23;20927;-79
2022/08/20 01:36:20;;;;;;;12.70;7.90;;;;;;;24.60;66.77;94293.38;6115304;23;20183;-79
2022/08/20 01:38:48;;;;;;;10.23;7.78;;;;;;;24.61;65.58;94297.63;6115336;23;20229;-78
2022/08/20 01:41:38;;;;;;;14.60;8.25;;;;;;;24.57;64.87;94291.34;6115659;23;20200;-78
2022/08/20 01:44:05;;;;;;;9.77;7.90;;;;;;;24.59;65.87;94287.28;6115065;23;20741;-78
2022/08/20 01:46:38;;;;;;;11.93;8.00;;;;;;;24.61;65.87;94282.44;6115716;23;20631;-79
2022/08/20 01:49:10;;;;;;;13.40;8.13;;;;;;;24.66;64.71;94273.53;6115394;23;20184;-78
2022/08/20 01:51:37;;;;;;;11.40;7.45;;;;;;;24.73;64.15;94279.91;6114033;23;20168;-78
2022/08/20 01:54:05;;;;;;;10.68;7.43;;;;;;;24.81;63.89;94279.16;6112147;23;20184;-79
2022/08/20 01:56:33;;;;;;;10.60;7.53;;;;;;;24.91;63.45;94288.66;6114653;23;20255;-78
2022/08/20 01:59:05;;;;;;;11.75;7.40;;;;;;;24.99;63.15;94279.91;6113717;23;20670;-77
2022/08/20 02:01:34;;;;;;;10.18;6.85;;;;;;;25.01;62.91;94283.03;6114263;23;20156;-77
2022/08/20 02:04:04;;;;;;;11.00;7.78;;;;;;;25.01;63.16;94288.34;6113170;23;20192;-77
2022/08/20 02:06:34;;;;;;;9.98;7.15;;;;;;;24.98;62.88;94281.00;6114268;23;20184;-76
2022/08/20 02:09:03;;;;;;;13.85;8.00;;;;;;;24.94;63.29;94282.72;6114350;23;20514;-76
2022/08/20 02:11:32;;;;;;;11.00;8.38;;;;;;;24.90;63.87;94292.44;6114287;23;20172;-77
2022/08/20 02:14:01;;;;;;;11.80;8.15;;;;;;;24.72;64.19;94283.69;6112816;23;20172;-79
2022/08/20 02:16:31;;;;;;;12.20;8.25;;;;;;;24.68;64.47;94285.41;6114988;23;20172;-79
2022/08/20 02:19:02;;;;;;;18.90;8.85;;;;;;;24.59;65.43;94281.97;6114929;23;20173;-79
2022/08/20 02:21:32;;;;;;;15.60;8.40;;;;;;;24.57;64.93;94286.81;6115027;23;20712;-78
2022/08/20 02:23:59;;;;;;;13.00;8.60;;;;;;;24.51;65.69;94280.09;6114849;23;20208;-77
2022/08/20 02:26:27;;;;;;;14.02;8.48;;;;;;;24.44;66.37;94274.50;6114731;23;20211;-78
2022/08/20 02:28:54;;;;;;;12.25;8.40;;;;;;;24.38;66.14;94274.94;6114776;23;20176;-78
2022/08/20 02:31:23;;;;;;;14.48;9.50;;;;;;;23.94;67.79;94283.94;6115173;23;20176;-78
2022/08/20 02:33:51;;;;;;;14.13;8.82;;;;;;;23.72;69.06;94280.31;6113277;23;20172;-78
2022/08/20 02:36:19;;;;;;;16.08;8.93;;;;;;;23.62;69.74;94288.56;6114575;23;20175;-78
2022/08/20 02:38:46;;;;;;;15.32;9.05;;;;;;;23.63;70.63;94284.03;6113790;23;20522;-78
2022/08/20 02:41:14;;;;;;;11.98;8.70;;;;;;;23.57;70.15;94279.97;6113327;23;20183;-78
2022/08/20 02:43:40;;;;;;;14.55;9.20;;;;;;;23.55;70.55;94287.47;6113022;23;20202;-78
2022/08/20 02:46:07;;;;;;;14.82;8.68;;;;;;;23.59;70.73;94278.56;6113706;23;20187;-78
2022/08/20 02:48:36;;;;;;;13.20;9.02;;;;;;;23.76;70.10;94287.66;6115161;23;20164;-78
2022/08/20 02:51:05;;;;;;;12.23;8.68;;;;;;;23.76;69.90;94298.28;6114977;23;20660;-78
2022/08/20 02:53:36;;;;;;;13.60;9.30;;;;;;;23.68;69.76;94287.34;6114334;23;20169;-79
2022/08/20 02:56:05;;;;;;;14.38;9.20;;;;;;;23.66;69.77;94292.16;6113870;23;20165;-78
2022/08/20 02:58:34;;;;;;;15.98;8.40;;;;;;;23.57;70.64;94298.53;6114753;23;20169;-78
2022/08/20 03:01:02;;;;;;;12.02;8.48;;;;;;;23.50;71.67;94295.53;6115124;23;20215;-79
2022/08/20 03:03:29;;;;;;;16.52;9.18;;;;;;;23.46;72.62;94300.66;6114886;23;20253;-78
2022/08/20 03:06:00;;;;;;;17.80;8.85;;;;;;;23.51;72.25;94299.78;6114014;23;20176;-77
2022/08/20 03:08:28;;;;;;;12.55;8.57;;;;;;;23.51;71.27;94305.06;6115570;23;20172;-79
2022/08/20 03:10:56;;;;;;;16.05;8.15;;;;;;;23.34;71.68;94300.47;6115932;23;20286;-78
2022/08/20 03:13:23;;;;;;;13.13;8.45;;;;;;;23.40;71.37;94303.78;6114800;23;20183;-77
2022/08/20 03:15:53;;;;;;;10.80;7.72;;;;;;;23.34;72.04;94299.66;6114913;23;20180;-78
2022/08/20 03:18:21;;;;;;;11.52;8.27;;;;;;;23.37;72.15;94302.50;6115808;23;20172;-77
2022/08/20 03:20:49;;;;;;;15.82;8.23;;;;;;;23.29;73.64;94299.81;6115321;23;20176;-78
2022/08/20 03:23:19;;;;;;;14.13;8.38;;;;;;;23.21;74.29;94303.97;6114307;23;20196;-78
2022/08/20 03:25:46;;;;;;;10.90;8.55;;;;;;;23.35;73.30;94303.91;6113208;23;20204;-78
2022/08/20 03:28:14;;;;;;;14.40;8.55;;;;;;;23.33;72.85;94308.72;6114685;23;20655;-78
2022/08/20 03:30:42;;;;;;;12.65;8.90;;;;;;;23.31;73.45;94308.25;6116020;23;20499;-77
2022/08/20 03:33:09;;;;;;;15.70;8.95;;;;;;;23.18;73.03;94308.03;6116451;23;20164;-79
2022/08/20 03:35:36;;;;;;;16.00;9.05;;;;;;;22.99;73.60;94312.75;6115558;23;20187;-79
2022/08/20 03:38:07;;;;;;;12.13;8.75;;;;;;;22.87;74.08;94285.25;6115317;23;20180;-78
2022/08/20 03:40:36;;;;;;;13.13;9.23;;;;;;;22.96;74.34;94305.41;6116614;23;20188;-78
2022/08/20 03:43:05;;;;;;;14.93;8.80;;;;;;;22.99;73.56;94301.38;6116646;23;20675;-79
2022/08/20 03:45:32;;;;;;;16.38;9.30;;;;;;;22.77;74.86;94315.41;6115492;23;20168;-78
2022/08/20 03:48:00;;;;;;;17.45;9.40;;;;;;;22.73;75.47;94311.81;6115262;23;20172;-78
2022/08/20 03:50:30;;;;;;;12.52;8.88;;;;;;;22.72;76.47;94315.53;6116325;23;20176;-78
2022/08/20 03:52:59;;;;;;;11.68;8.82;;;;;;;22.70;77.10;94315.06;6116138;23;20172;-78
2022/08/20 03:55:29;;;;;;;20.70;9.80;;;;;;;22.71;77.03;94318.50;6116158;23;20180;-78
2022/08/20 03:58:01;;;;;;;16.48;9.48;;;;;;;22.71;76.26;94326.47;6113960;23;20173;-77
2022/08/20 04:00:32;;;;;;;20.17;9.43;;;;;;;22.66;76.19;94327.34;6114785;23;20175;-78
2022/08/20 04:03:00;;;;;;;18.42;9.70;;;;;;;22.71;75.92;94319.28;6115087;23;20833;-77
2022/08/20 04:05:28;;;;;;;13.88;9.48;;;;;;;22.80;75.35;94322.75;6115299;23;20170;-77
2022/08/20 04:07:56;;;;;;;13.05;9.18;;;;;;;22.73;75.95;94322.41;6114896;23;20176;-78
2022/08/20 04:10:24;;;;;;;18.42;9.82;;;;;;;22.60;76.23;94320.56;6115726;23;20273;-78
2022/08/20 04:12:51;;;;;;;13.30;9.68;;;;;;;22.58;76.62;94326.19;6115482;23;20203;-77
2022/08/20 04:15:19;;;;;;;16.95;9.60;;;;;;;22.47;77.63;94332.00;6115841;23;20524;-77
2022/08/20 04:17:50;;;;;;;20.65;10.07;;;;;;;22.51;77.55;94328.44;6114789;23;20172;-77
2022/08/20 04:20:22;;;;;;;17.83;9.82;;;;;;;22.55;76.98;94321.47;6115302;23;20188;-78
2022/08/20 04:22:49;;;;;;;14.35;9.13;;;;;;;22.58;76.90;94331.47;6116549;23;20157;-77
2022/08/20 04:25:16;;;;;;;19.75;9.50;;;;;;;22.52;76.94;94335.31;6116079;23;20206;-77
2022/08/20 04:27:44;;;;;;;15.10;9.80;;;;;;;22.58;76.33;94328.81;6114926;23;20289;-77
2022/08/20 04:30:13;;;;;;;16.48;10.80;;;;;;;22.45;77.76;94326.25;6115117;23;20711;-77
2022/08/20 04:32:41;;;;;;;15.48;10.15;;;;;;;22.54;78.18;94332.34;6115470;23;20248;-78
2022/08/20 04:35:13;;;;;;;14.15;10.60;;;;;;;22.63;78.85;94332.44;6116274;23;20207;-78
2022/08/20 04:37:41;;;;;;;16.88;11.25;;;;;;;22.57;79.20;94314.00;6115469;23;20531;-79
2022/08/20 04:42:54;;;;;;;15.85;10.43;;;;;;;22.86;78.25;94339.31;6116332;23;20218;-79
2022/08/20 04:45:22;;;;;;;18.70;11.23;;;;;;;22.92;78.38;94335.47;6115640;23;20180;-78
2022/08/20 04:47:50;;;;;;;18.45;11.35;;;;;;;22.97;77.60;94343.31;6113634;23;20176;-79
2022/08/20 04:50:20;;;;;;;18.75;11.10;;;;;;;22.96;77.12;94339.09;6116017;23;20173;-79
2022/08/20 04:52:48;;;;;;;17.70;10.90;;;;;;;22.99;78.22;94331.31;6116298;23;20173;-79
2022/08/20 04:55:16;;;;;;;22.30;11.43;;;;;;;22.99;77.19;94333.97;6115146;23;20192;-79
2022/08/20 04:57:43;;;;;;;25.55;11.98;;;;;;;23.00;76.87;94324.91;6115642;23;20176;-79
2022/08/20 05:00:16;;;;;;;18.88;10.57;;;;;;;22.97;75.76;94324.75;6115321;23;20518;-78
2022/08/20 05:02:43;;;;;;;21.38;10.38;;;;;;;22.89;77.11;94328.91;6114819;23;20160;-78
2022/08/20 05:05:13;;;;;;;16.60;10.00;;;;;;;22.90;77.31;94330.47;6115430;23;20199;-78
2022/08/20 05:07:42;;;;;;;15.85;10.55;;;;;;;22.93;77.21;94334.41;6115006;23;20164;-78
2022/08/20 05:10:11;;;;;;;18.48;11.32;;;;;;;22.99;76.79;94341.94;6114946;23;20173;-78
2022/08/20 05:12:40;;;;;;;15.98;10.85;;;;;;;23.08;76.68;94334.03;6116285;23;20606;-78
2022/08/20 05:15:07;;;;;;;20.60;10.77;;;;;;;23.24;76.28;94337.84;6115501;23;20164;-78
2022/08/20 05:17:34;;;;;;;18.05;10.48;;;;;;;23.49;75.02;94334.56;6113889;23;20199;-78
2022/08/20 05:20:01;;;;;;;20.55;11.20;;;;;;;23.66;74.49;94334.63;6114019;23;20935;-78
2022/08/20 05:22:29;;;;;;;21.33;11.20;;;;;;;23.80;74.40;94339.06;6115249;23;20180;-78
2022/08/20 05:24:58;;;;;;;21.35;10.93;;;;;;;23.83;74.87;94336.56;6115480;23;20203;-78
2022/08/20 05:27:25;;;;;;;21.27;11.73;;;;;;;23.79;73.75;94330.28;6114536;23;20211;-78
2022/08/20 05:29:54;;;;;;;15.00;11.35;;;;;;;23.75;74.10;94325.91;6113611;23;20176;-76
2022/08/20 05:32:21;;;;;;;20.70;11.07;;;;;;;23.70;75.55;94324.97;6114563;23;20183;-77
2022/08/20 05:34:48;;;;;;;18.52;11.85;;;;;;;23.71;75.03;94326.53;6115941;23;20483;-77
2022/08/20 05:37:16;;;;;;;23.85;10.55;;;;;;;23.72;75.56;94324.66;6115025;23;20177;-77
2022/08/20 05:39:45;;;;;;;23.35;11.05;;;;;;;23.78;75.38;94318.09;6113563;23;20619;-76
2022/08/20 05:42:12;;;;;;;18.27;11.13;;;;;;;23.85;74.46;94310.47;6113803;23;20172;-76
2022/08/20 05:44:39;;;;;;;22.45;11.10;;;;;;;23.81;74.79;94308.78;6114190;23;20969;-76
2022/08/20 05:47:06;;;;;;;15.60;10.35;;;;;;;23.82;75.26;94320.94;6114104;23;20176;-76
2022/08/20 05:49:33;;;;;;;16.38;10.73;;;;;;;23.84;75.50;94324.84;6114088;23;20176;-76
2022/08/20 05:52:00;;;;;;;15.65;10.43;;;;;;;23.95;75.08;94328.00;6113566;23;20173;-77
2022/08/20 05:54:27;;;;;;;18.77;10.05;;;;;;;24.00;74.67;94323.34;6114015;23;20934;-77
2022/08/20 05:56:56;;;;;;;18.40;10.30;;;;;;;24.28;74.94;94318.53;6113780;23;20238;-76
2022/08/20 05:59:23;;;;;;;18.02;10.13;;;;;;;24.64;72.16;94316.38;6114841;23;20172;-76
2022/08/20 06:01:51;;;;;;;13.32;8.82;;;;;;;24.68;71.43;94306.66;6114352;23;20521;-76
2022/08/20 06:04:23;;;;;;;17.05;10.45;;;;;;;24.75;71.48;94309.66;6115113;23;20196;-76
2022/08/20 06:06:52;;;;;;;14.80;10.00;;;;;;;24.79;71.00;94310.56;6115113;23;20218;-77
2022/08/20 06:09:22;;;;;;;18.77;10.27;;;;;;;24.76;70.65;94315.75;6115869;23;20534;-76
2022/08/20 06:11:49;;;;;;;20.92;10.10;;;;;;;24.79;71.34;94315.88;6113344;23;20187;-76
2022/08/20 06:14:17;;;;;;;16.80;9.80;;;;;;;24.88;70.55;94325.78;6114978;23;20188;-77
2022/08/20 06:16:44;;;;;;;19.88;10.23;;;;;;;24.81;70.28;94320.91;6115048;23;20172;-76
2022/08/20 06:19:11;;;;;;;18.88;10.80;;;;;;;24.85;69.78;94321.84;6115019;23;20179;-77
2022/08/20 06:21:39;;;;;;;15.05;10.40;;;;;;;24.98;70.04;94322.78;6114869;23;20206;-76
2022/08/20 06:24:06;;;;;;;16.80;9.88;;;;;;;25.08;69.83;94319.78;6114383;23;20698;-77
2022/08/20 06:26:34;;;;;;;15.20;10.50;;;;;;;25.14;70.30;94319.28;6115396;23;20675;-77
2022/08/20 06:29:01;;;;;;;17.83;10.80;;;;;;;25.14;69.59;94324.59;6116027;23;20996;-77
2022/08/20 06:31:30;;;;;;;14.30;9.15;;;;;;;25.17;69.48;94317.88;6115484;23;20172;-73
2022/08/20 06:33:57;;;;;;;18.38;9.55;;;;;;;25.17;70.41;94313.34;6112985;23;20515;-73
2022/08/20 06:36:24;;;;;;;18.13;9.32;;;;;;;25.36;70.05;94318.28;6113660;23;20692;-74
2022/08/20 06:38:53;;;;;;;13.63;9.52;;;;;;;25.54;68.77;94309.16;6112707;23;20173;-74
2022/08/20 06:41:20;;;;;;;15.02;9.57;;;;;;;25.83;66.29;94314.50;6114216;23;20172;-76
2022/08/20 06:43:47;;;;;;;18.58;10.13;;;;;;;26.00;65.71;94308.31;6113166;23;20168;-80
2022/08/20 06:46:14;;;;;;;20.00;10.02;;;;;;;26.11;65.20;94314.03;6113937;23;20853;-78
2022/08/20 06:48:42;;;;;;;13.05;9.10;;;;;;;26.13;65.17;94309.94;6114300;23;20176;-74
2022/08/20 06:51:09;;;;;;;19.08;9.85;;;;;;;26.12;65.58;94312.94;6114095;23;20291;-73
2022/08/20 06:53:36;;;;;;;17.60;9.45;;;;;;;26.14;65.40;94308.88;6112649;23;20172;-72
2022/08/20 06:56:03;;;;;;;18.55;9.50;;;;;;;26.15;65.35;94314.97;6112762;23;20176;-73
2022/08/20 06:58:31;;;;;;;13.18;9.43;;;;;;;26.25;65.09;94315.38;6114691;23;20585;-73
2022/08/20 07:00:58;;;;;;;20.90;9.73;;;;;;;26.25;64.83;94317.28;6112963;23;20672;-73
2022/08/20 07:03:25;;;;;;;16.30;9.52;;;;;;;26.28;64.46;94300.63;6111670;23;20902;-75
2022/08/20 07:05:53;;;;;;;12.70;9.10;;;;;;;26.31;64.34;94303.44;6112290;23;20199;-74
2022/08/20 07:08:21;;;;;;;14.82;9.57;;;;;;;26.34;64.59;94302.78;6113344;23;20173;-73
2022/08/20 07:10:48;;;;;;;14.75;8.88;;;;;;;26.41;64.12;94296.91;6114294;23;20199;-73
2022/08/20 07:13:15;;;;;;;15.55;9.35;;;;;;;26.52;64.34;94289.31;6113528;23;20168;-74
2022/08/20 07:15:43;;;;;;;14.75;9.65;;;;;;;26.68;63.56;94285.72;6112800;23;20226;-74
2022/08/20 07:18:12;;;;;;;16.73;9.45;;;;;;;26.72;62.82;94285.84;6114197;23;20565;-73
2022/08/20 07:20:40;;;;;;;11.45;8.98;;;;;;;26.96;61.67;94288.63;6114774;23;20247;-75
2022/08/20 07:23:10;;;;;;;12.65;8.77;;;;;;;27.10;61.39;94286.44;6112977;23;20639;-74
2022/08/20 07:25:36;;;;;;;11.35;9.40;;;;;;;27.12;61.94;94291.44;6112749;23;20275;-73
2022/08/20 07:28:06;;;;;;;11.20;8.65;;;;;;;27.09;61.20;94281.44;6113484;23;20157;-73
2022/08/20 07:33:18;;;;;;;16.58;9.10;;;;;;;27.18;61.66;94282.91;6114038;23;20160;-74
2022/08/20 07:35:47;;;;;;;13.57;8.43;;;;;;;27.16;62.64;94289.69;6113106;23;20175;-73
2022/08/20 07:38:23;;;;;;;17.75;9.55;;;;;;;27.30;61.61;94280.22;6113864;23;20176;-76
2022/08/20 07:40:52;;;;;;;21.13;9.00;;;;;;;27.36;60.84;94276.25;6116709;23;20157;-79
2022/08/20 07:43:22;;;;;;;15.38;9.40;;;;;;;27.47;61.07;94277.41;6116109;23;20172;-80
2022/08/20 07:45:49;;;;;;;15.73;9.98;;;;;;;27.52;60.53;94279.84;6114357;23;20204;-74
2022/08/20 07:48:17;;;;;;;13.23;9.32;;;;;;;27.49;60.78;94282.41;6113353;23;20195;-74
2022/08/20 07:50:45;;;;;;;15.48;9.73;;;;;;;27.59;60.15;94279.28;6113668;23;20582;-75
2022/08/20 07:53:12;;;;;;;17.25;9.35;;;;;;;27.68;59.34;94285.31;6114287;23;20168;-73
2022/08/20 07:55:40;;;;;;;12.25;8.07;;;;;;;27.82;57.90;94282.31;6113186;23;20169;-73
2022/08/20 07:58:11;;;;;;;15.27;8.80;;;;;;;27.79;57.59;94278.41;6113332;23;20168;-73
2022/08/20 08:00:39;;;;;;;14.73;8.00;;;;;;;27.53;56.59;94280.66;6112472;23;20611;-73
2022/08/20 08:03:06;;;;;;;14.93;7.90;;;;;;;27.62;57.72;94283.22;6113785;23;20179;-73
2022/08/20 08:05:35;;;;;;;15.32;8.52;;;;;;;27.44;58.03;94274.63;6114596;23;20196;-73
2022/08/20 08:08:02;;;;;;;13.88;9.02;;;;;;;27.44;57.98;94269.28;6113810;23;20168;-73
2022/08/20 08:10:29;;;;;;;13.63;8.98;;;;;;;27.44;57.95;94287.97;6114222;23;20226;-73
2022/08/20 08:13:00;;;;;;;18.52;9.35;;;;;;;27.46;59.47;94283.84;6114019;23;20639;-73
2022/08/20 08:15:31;;;;;;;11.50;9.25;;;;;;;27.49;58.16;94277.84;6114468;23;20168;-73
2022/08/20 08:18:06;;;;;;;10.73;8.15;;;;;;;27.64;56.69;94276.41;6112639;23;20218;-73
2022/08/20 08:20:37;;;;;;;9.73;8.73;;;;;;;27.67;58.90;94267.72;6114210;23;20156;-76
2022/08/20 08:23:04;;;;;;;10.38;8.23;;;;;;;27.62;58.79;94272.53;6114402;23;20160;-73
2022/08/20 08:25:32;;;;;;;11.15;8.52;;;;;;;27.50;57.44;94266.03;6112938;23;20195;-74
2022/08/20 08:28:01;;;;;;;14.88;9.25;;;;;;;27.71;59.80;94267.81;6112822;23;20182;-74
2022/08/20 08:30:28;;;;;;;10.23;8.68;;;;;;;27.84;58.08;94262.16;6114117;23;20290;-74
2022/08/20 08:35:39;;;;;;;16.88;10.40;;;;;;;28.12;58.57;94263.03;6113619;23;20206;-75
2022/08/20 08:38:06;;;;;;;14.13;9.75;;;;;;;28.20;57.69;94269.34;6112498;23;20258;-74
2022/08/20 08:40:34;;;;;;;17.08;9.93;;;;;;;28.32;57.02;94263.97;6114299;23;20242;-77
2022/08/20 08:43:04;;;;;;;17.38;8.48;;;;;;;28.37;56.23;94250.34;6114719;23;20173;-76
2022/08/20 08:45:40;;;;;;;16.13;9.73;;;;;;;28.47;55.84;94257.13;6114365;23;20203;-76
2022/08/20 08:48:06;;;;;;;13.15;10.10;;;;;;;28.47;56.20;94252.56;6110890;23;20187;-76
2022/08/20 08:50:36;;;;;;;16.20;9.60;;;;;;;28.58;57.13;94250.19;6112954;23;20168;-74
2022/08/20 08:53:04;;;;;;;11.93;7.85;;;;;;;28.68;55.41;94244.38;6113708;23;20173;-75
2022/08/20 08:55:32;;;;;;;11.15;8.45;;;;;;;28.52;55.02;94246.97;6113460;23;20254;-76
2022/08/20 08:58:03;;;;;;;13.48;8.40;;;;;;;28.45;54.35;94230.75;6113255;23;20172;-76
2022/08/20 09:00:30;;;;;;;13.75;9.70;;;;;;;28.69;57.58;94238.69;6113404;23;20624;-75
2022/08/20 09:03:01;;;;;;;11.63;9.13;;;;;;;28.85;55.12;94236.03;6113592;23;20461;-73
2022/08/20 09:05:37;;;;;;;14.88;9.30;;;;;;;28.85;54.73;94236.03;6113666;23;20184;-74
2022/08/20 09:08:07;;;;;;;14.32;9.07;;;;;;;28.65;54.34;94229.00;6112638;23;20163;-74
2022/08/20 09:10:33;;;;;;;11.25;8.48;;;;;;;28.60;52.98;94221.22;6114573;23;20639;-73
2022/08/20 09:13:02;;;;;;;11.38;8.43;;;;;;;28.65;53.35;94229.81;6114942;23;20545;-73
2022/08/20 09:15:29;;;;;;;12.18;8.98;;;;;;;29.02;56.18;94229.59;6114091;23;20256;-73
2022/08/20 09:17:56;;;;;;;14.80;8.68;;;;;;;29.07;52.25;94229.31;6113033;23;20242;-73
2022/08/20 09:20:23;;;;;;;12.15;9.15;;;;;;;29.28;54.36;94237.94;6113606;23;20176;-73
2022/08/20 09:22:50;;;;;;;12.77;8.20;;;;;;;29.55;52.77;94238.97;6114246;23;20175;-74
2022/08/20 09:25:17;;;;;;;12.32;9.40;;;;;;;29.61;52.47;94242.94;6113661;23;20204;-73
2022/08/20 09:27:45;;;;;;;13.00;8.80;;;;;;;29.65;51.87;94235.75;6112828;23;20200;-78
2022/08/20 09:30:14;;;;;;;15.50;10.02;;;;;;;29.87;52.20;94234.38;6112940;23;20176;-72
2022/08/20 09:32:42;;;;;;;11.75;9.40;;;;;;;30.01;50.87;94230.09;6114671;23;20176;-73
2022/08/20 09:35:10;;;;;;;11.23;7.70;;;;;;;30.10;51.02;94227.97;6114176;23;20172;-72
2022/08/20 09:37:36;;;;;;;11.77;9.50;;;;;;;30.10;52.22;94219.91;6113864;23;20226;-73
2022/08/20 09:40:05;;;;;;;9.07;7.80;;;;;;;29.87;48.46;94213.66;6112882;23;20192;-73
2022/08/20 09:42:33;;;;;;;11.50;8.57;;;;;;;29.84;50.65;94222.44;6113991;23;20180;-73
2022/08/20 09:45:01;;;;;;;9.43;7.78;;;;;;;29.51;49.50;94222.03;6114611;23;20234;-73
2022/08/20 09:47:29;;;;;;;14.65;9.25;;;;;;;30.02;49.66;94220.91;6113587;23;20204;-73
2022/08/20 09:49:56;;;;;;;8.68;7.72;;;;;;;30.39;47.82;94218.63;6112067;23;20184;-73
2022/08/20 09:52:26;;;;;;;8.75;7.85;;;;;;;30.59;47.62;94225.53;6113722;23;20179;-74
2022/08/20 09:54:57;;;;;;;14.02;8.80;;;;;;;30.97;48.72;94211.31;6112830;23;20180;-74
2022/08/20 09:57:25;;;;;;;14.45;8.57;;;;;;;31.35;46.30;94205.03;6113893;23;20440;-73
2022/08/20 09:59:56;;;;;;;15.52;7.82;;;;;;;31.43;44.84;94209.38;6111870;23;20257;-73
2022/08/20 10:02:24;;;;;;;10.93;8.15;;;;;;;31.23;45.15;94215.97;6113064;23;20186;-74
2022/08/20 10:04:52;;;;;;;10.48;8.00;;;;;;;31.01;45.90;94209.47;6112866;23;20177;-73
2022/08/20 10:07:19;;;;;;;8.70;7.90;;;;;;;31.38;44.81;94217.75;6113547;23;20188;-73
2022/08/20 10:09:46;;;;;;;9.85;8.18;;;;;;;31.49;44.70;94207.22;6111760;23;20172;-73
2022/08/20 10:12:13;;;;;;;12.25;8.40;;;;;;;31.96;43.40;94219.06;6112301;23;20172;-73
2022/08/20 10:14:40;;;;;;;13.43;8.10;;;;;;;32.23;43.29;94219.06;6114242;23;20176;-73
2022/08/20 10:17:06;;;;;;;12.90;8.50;;;;;;;32.50;42.59;94221.31;6112721;23;20191;-74
2022/08/20 10:19:34;;;;;;;12.07;8.25;;;;;;;32.63;42.30;94213.03;6111943;23;20183;-74
2022/08/20 10:22:02;;;;;;;12.15;7.95;;;;;;;32.72;40.20;94213.50;6113021;23;20498;-75
2022/08/20 10:24:29;;;;;;;14.27;8.70;;;;;;;32.79;40.87;94218.97;6113434;23;20172;-74
2022/08/20 10:26:57;;;;;;;8.32;7.10;;;;;;;32.79;39.85;94214.34;6113115;23;20667;-73
2022/08/20 10:29:24;;;;;;;10.88;7.80;;;;;;;32.51;40.36;94208.63;6114494;23;20176;-72
2022/08/20 10:31:51;;;;;;;9.73;7.32;;;;;;;32.20;41.11;94209.81;6112711;23;20198;-78
2022/08/20 10:34:18;;;;;;;11.57;7.90;;;;;;;32.10;42.46;94206.97;6114888;23;20172;-72
2022/08/20 10:36:45;;;;;;;9.60;8.10;;;;;;;32.06;41.47;94196.19;6114758;23;20251;-72
2022/08/20 10:39:13;;;;;;;52.67;24.98;;;;;;;32.19;41.62;94197.47;6113239;23;20886;-72
2022/08/20 10:41:40;;;;;;;56.80;26.17;;;;;;;32.07;41.32;94189.63;6111826;23;20172;-72
2022/08/20 10:44:08;;;;;;;18.73;9.55;;;;;;;32.41;43.04;94193.16;6107353;23;20172;-74
2022/08/20 10:46:35;;;;;;;10.80;8.45;;;;;;;32.80;41.46;94194.38;6112392;23;20196;-75
2022/08/20 10:49:02;;;;;;;14.02;9.10;;;;;;;32.95;41.55;94189.91;6113043;23;20580;-75
2022/08/20 10:51:28;;;;;;;11.13;8.57;;;;;;;33.17;41.85;94188.19;6112905;23;20175;-74
2022/08/20 10:53:55;;;;;;;14.10;9.13;;;;;;;33.38;41.76;94191.06;6110935;23;20180;-75
2022/08/20 10:56:23;;;;;;;10.93;8.98;;;;;;;33.80;40.66;94190.59;6111773;23;20191;-75
2022/08/20 10:58:51;;;;;;;10.63;9.52;;;;;;;34.11;40.03;94181.97;6111659;23;20659;-75
2022/08/20 11:01:18;;;;;;;13.23;8.95;;;;;;;34.57;39.45;94191.03;6112350;23;20175;-76
2022/08/20 11:03:44;;;;;;;10.93;8.70;;;;;;;34.82;38.52;94191.13;6110639;23;20172;-76
2022/08/20 11:06:11;;;;;;;8.82;7.93;;;;;;;35.14;37.15;94185.78;6110812;23;20290;-75
2022/08/20 11:08:38;;;;;;;16.50;8.88;;;;;;;35.37;37.03;94188.13;6112396;23;20191;-76
2022/08/20 11:11:06;;;;;;;10.00;8.88;;;;;;;35.33;36.95;94190.06;6112318;23;20172;-76
2022/08/20 11:13:34;;;;;;;12.38;8.43;;;;;;;35.27;36.91;94174.19;6111353;23;20180;-76
2022/08/20 11:16:02;;;;;;;13.88;8.52;;;;;;;35.11;37.25;94181.94;6111085;23;20169;-76
2022/08/20 11:18:30;;;;;;;15.02;8.40;;;;;;;35.21;37.40;94177.69;6112092;23;20180;-76
2022/08/20 11:20:57;;;;;;;12.50;8.00;;;;;;;35.45;36.29;94170.72;6111730;23;20168;-77
2022/08/20 11:23:24;;;;;;;13.05;8.70;;;;;;;35.63;35.75;94174.22;6111843;23;20183;-75
2022/08/20 11:25:51;;;;;;;11.80;8.30;;;;;;;35.51;35.51;94163.75;6110442;23;20463;-76
2022/08/20 11:28:18;;;;;;;14.40;8.15;;;;;;;35.77;36.17;94160.66;6110788;23;20167;-76
2022/08/20 11:30:48;;;;;;;10.85;8.50;;;;;;;35.98;35.63;94160.63;6112757;23;20213;-76
2022/08/20 11:33:15;;;;;;;14.38;8.43;;;;;;;36.16;35.04;94147.06;6113036;23;20172;-77
2022/08/20 11:35:42;;;;;;;15.57;8.60;;;;;;;36.25;35.12;94144.72;6112354;23;20629;-77
2022/08/20 11:38:09;;;;;;;13.45;8.30;;;;;;;36.37;35.09;94136.91;6112300;23;20176;-76